Time;durP1;ratioP1;P1;durP2;ratioP2;P2;SDS_P1;SDS_P2;PMS_P1;PMS_P2;Temp;Humidity;BMP_temperature;BMP_pressure;BME280_temperature;BME280_humidity;BME280_pressure;Samples;Min_cycle;Max_cycle;Signal;HPM_P1;HPM_P2
2021/12/18 00:02:20;;;;;;;0.17;0.17;;;;;21.00;100761.00;;;;5127949;27;20120;-74
2021/12/18 00:04:50;;;;;;;3.60;0.38;;;;;21.00;100778.00;;;;5127395;27;20050;-74
2021/12/18 00:07:19;;;;;;;0.00;0.00;;;;;20.90;100786.00;;;;5128409;27;20043;-74
2021/12/18 00:09:51;;;;;;;0.30;0.10;;;;;21.00;100776.00;;;;5127147;27;20039;-75
2021/12/18 00:12:21;;;;;;;0.98;0.10;;;;;21.00;100798.00;;;;5127922;27;20039;-75
2021/12/18 00:14:50;;;;;;;0.00;0.00;;;;;21.00;100792.00;;;;5126904;27;20043;-75
2021/12/18 00:17:19;;;;;;;0.70;0.63;;;;;21.00;100787.00;;;;5126910;27;20042;-74
2021/12/18 00:19:49;;;;;;;1.17;0.43;;;;;21.00;100793.00;;;;5118875;27;20106;-74
2021/12/18 00:22:18;;;;;;;0.00;0.00;;;;;21.00;100784.00;;;;5108485;27;20052;-73
2021/12/18 00:24:47;;;;;;;2.28;0.10;;;;;21.00;100804.00;;;;5108275;28;20055;-74
2021/12/18 00:27:17;;;;;;;1.15;0.35;;;;;20.90;100797.00;;;;5108185;27;20506;-74
2021/12/18 00:29:46;;;;;;;0.00;0.00;;;;;20.90;100802.00;;;;5115506;27;20043;-75
2021/12/18 00:32:16;;;;;;;1.77;0.50;;;;;20.90;100802.00;;;;5116231;27;20084;-75
2021/12/18 00:34:45;;;;;;;0.00;0.00;;;;;20.90;100812.00;;;;5113270;27;20047;-75
2021/12/18 00:37:14;;;;;;;0.00;0.00;;;;;20.90;100819.00;;;;5115019;27;20054;-75
2021/12/18 00:39:54;;;;;;;0.03;0.03;;;;;20.90;100803.00;;;;5113514;27;20517;-75
2021/12/18 00:44:55;;;;;;;0.45;0.45;;;;;21.10;100799.00;;;;5128977;27;20070;-74
2021/12/18 00:47:26;;;;;;;0.17;0.17;;;;;21.10;100803.00;;;;5127064;27;20065;-75
2021/12/18 00:49:56;;;;;;;0.10;0.03;;;;;21.00;100828.00;;;;5126832;27;20138;-74
2021/12/18 00:52:25;;;;;;;0.45;0.10;;;;;21.00;100834.00;;;;5127156;27;20035;-74
2021/12/18 00:54:55;;;;;;;0.00;0.00;;;;;20.90;100838.00;;;;5127151;27;20096;-74
2021/12/18 00:57:24;;;;;;;0.00;0.00;;;;;20.90;100829.00;;;;5125432;27;20045;-73
2021/12/18 00:59:59;;;;;;;0.00;0.00;;;;;20.90;100810.00;;;;5126244;27;20115;-74
2021/12/18 01:02:30;;;;;;;0.35;0.28;;;;;20.90;100830.00;;;;5126050;27;20092;-73
2021/12/18 01:05:00;;;;;;;0.00;0.00;;;;;20.90;100824.00;;;;5127179;27;20043;-75
2021/12/18 01:07:29;;;;;;;0.00;0.00;;;;;20.90;100804.00;;;;5126654;27;20051;-74
2021/12/18 01:12:38;;;;;;;0.00;0.00;;;;;20.90;100819.00;;;;5126761;27;20043;-74
2021/12/18 01:15:36;;;;;;;0.00;0.00;;;;;20.90;100828.00;;;;5127255;28;20050;-74
2021/12/18 01:23:43;;;;;;;0.00;0.00;;;;;20.70;100811.00;;;;5126361;27;20070;-74
2021/12/18 01:26:13;;;;;;;0.00;0.00;;;;;20.50;100826.00;;;;5089700;27;20073;-73
2021/12/18 01:28:43;;;;;;;0.00;0.00;;;;;20.60;100839.00;;;;5090133;28;20056;-74
2021/12/18 01:31:12;;;;;;;0.10;0.10;;;;;20.60;100807.00;;;;5089996;28;20127;-73
2021/12/18 01:33:42;;;;;;;0.10;0.00;;;;;20.60;100805.00;;;;5090009;28;20044;-75
2021/12/18 01:36:11;;;;;;;0.00;0.00;;;;;20.70;100800.00;;;;5090767;28;20048;-74
2021/12/18 01:38:41;;;;;;;3.30;0.43;;;;;20.70;100828.00;;;;5089917;28;20044;-75
2021/12/18 01:41:10;;;;;;;0.00;0.00;;;;;20.70;100800.00;;;;5090016;28;20063;-73
2021/12/18 01:46:41;;;;;;;0.52;0.40;;;;;20.80;100807.00;;;;5090033;28;20141;-76
2021/12/18 01:52:18;;;;;;;0.00;0.00;;;;;20.80;100802.00;;;;5089996;28;20048;-74
2021/12/18 01:54:48;;;;;;;0.20;0.20;;;;;20.80;100825.00;;;;5090000;28;20530;-74
2021/12/18 01:57:17;;;;;;;0.00;0.00;;;;;20.70;100817.00;;;;5089579;28;20036;-74
2021/12/18 01:59:48;;;;;;;0.00;0.00;;;;;20.70;100834.00;;;;5089574;28;20052;-74
2021/12/18 02:02:18;;;;;;;0.00;0.00;;;;;20.80;100829.00;;;;5089479;28;20044;-74
2021/12/18 02:04:47;;;;;;;0.00;0.00;;;;;20.80;100822.00;;;;5088016;28;20147;-73
2021/12/18 02:07:17;;;;;;;0.00;0.00;;;;;20.70;100815.00;;;;5089572;28;20056;-74
2021/12/18 02:10:08;;;;;;;0.08;0.08;;;;;20.70;100802.00;;;;5088819;28;20048;-75
2021/12/18 02:20:50;;;;;;;0.00;0.00;;;;;20.60;100797.00;;;;5089331;28;20054;-74
2021/12/18 02:23:20;;;;;;;0.10;0.10;;;;;20.60;100819.00;;;;5089422;28;20372;-74
2021/12/18 02:25:51;;;;;;;0.10;0.00;;;;;20.60;100814.00;;;;5089257;28;20039;-74
2021/12/18 02:28:24;;;;;;;0.00;0.00;;;;;20.60;100800.00;;;;5089523;28;20077;-75
2021/12/18 02:30:56;;;;;;;0.00;0.00;;;;;20.60;100823.00;;;;5089109;28;20040;-75
2021/12/18 02:33:27;;;;;;;2.50;0.30;;;;;20.60;100818.00;;;;5088772;28;20032;-74
2021/12/18 02:35:58;;;;;;;;;;;;;20.60;100833.00;;;;5089339;28;20040;-75
2021/12/18 02:38:57;;;;;;;0.00;0.00;;;;;20.50;100803.00;;;;5086912;28;19923;-75
2021/12/18 02:44:04;;;;;;;0.52;0.38;;;;;20.40;100821.00;;;;5088454;28;20442;-75
2021/12/18 02:46:34;;;;;;;0.65;0.20;;;;;20.40;100826.00;;;;5086733;28;20093;-74
2021/12/18 02:49:13;;;;;;;0.00;0.00;;;;;20.30;100822.00;;;;5087409;28;20090;-75
2021/12/18 02:51:43;;;;;;;0.00;0.00;;;;;20.30;100805.00;;;;5089299;28;20089;-73
2021/12/18 02:54:13;;;;;;;3.13;0.83;;;;;20.40;100813.00;;;;5088961;28;20048;-76
2021/12/18 02:56:42;;;;;;;0.00;0.00;;;;;20.30;100813.00;;;;5088425;28;20044;-75
2021/12/18 02:59:12;;;;;;;0.57;0.10;;;;;20.30;100813.00;;;;5086888;28;20059;-75
2021/12/18 03:01:41;;;;;;;3.53;1.45;;;;;20.30;100797.00;;;;5088309;28;20048;-74
2021/12/18 03:06:53;;;;;;;0.00;0.00;;;;;20.30;100798.00;;;;5089075;28;20148;-75
2021/12/18 03:19:07;;;;;;;0.00;0.00;;;;;20.30;100801.00;;;;5088430;28;20059;-73
2021/12/18 03:25:59;;;;;;;0.00;0.00;;;;;20.50;100789.00;;;;5088322;28;20051;-74
2021/12/18 03:28:30;;;;;;;0.00;0.00;;;;;20.40;100814.00;;;;5088412;28;20051;-75
2021/12/18 03:30:59;;;;;;;0.00;0.00;;;;;20.40;100799.00;;;;5088074;28;20071;-75
2021/12/18 03:33:29;;;;;;;0.17;0.10;;;;;20.50;100791.00;;;;5087904;28;20093;-75
2021/12/18 03:35:58;;;;;;;0.17;0.00;;;;;20.50;100808.00;;;;5087917;28;20040;-75
2021/12/18 03:38:27;;;;;;;0.03;0.00;;;;;20.50;100797.00;;;;5090748;28;20048;-75
2021/12/18 03:40:57;;;;;;;0.00;0.00;;;;;20.40;100731.00;;;;5089785;28;20052;-74
2021/12/18 03:43:26;;;;;;;0.00;0.00;;;;;20.40;100774.00;;;;5088253;28;20073;-74
2021/12/18 03:45:56;;;;;;;0.22;0.03;;;;;20.40;100760.00;;;;5087979;28;20460;-74
2021/12/18 03:48:25;;;;;;;3.63;0.40;;;;;20.40;100762.00;;;;5087950;28;20055;-74
2021/12/18 03:50:54;;;;;;;0.10;0.10;;;;;20.30;100771.00;;;;5087433;28;20048;-74
2021/12/18 03:53:24;;;;;;;0.10;0.10;;;;;20.20;100774.00;;;;5087345;28;20052;-75
2021/12/18 03:55:53;;;;;;;0.20;0.10;;;;;20.10;100747.00;;;;5087399;28;20048;-75
2021/12/18 03:58:22;;;;;;;1.35;0.25;;;;;20.00;100759.00;;;;5087356;28;20048;-75
2021/12/18 04:00:52;;;;;;;0.00;0.00;;;;;19.90;100752.00;;;;5087069;28;20048;-75
2021/12/18 04:03:21;;;;;;;2.30;0.43;;;;;19.90;100761.00;;;;5087075;28;20580;-75
2021/12/18 04:05:51;;;;;;;0.00;0.00;;;;;19.80;100764.00;;;;5086767;28;20525;-74
2021/12/18 04:08:20;;;;;;;0.00;0.00;;;;;19.70;100750.00;;;;5085836;28;20406;-75
2021/12/18 04:10:50;;;;;;;0.00;0.00;;;;;19.70;100765.00;;;;5087470;28;20058;-74
2021/12/18 04:13:19;;;;;;;0.00;0.00;;;;;19.60;100726.00;;;;5087802;28;20090;-74
2021/12/18 04:15:48;;;;;;;0.00;0.00;;;;;19.50;100724.00;;;;5087056;28;20086;-74
2021/12/18 04:18:18;;;;;;;0.10;0.10;;;;;19.50;100722.00;;;;5088003;28;20040;-74
2021/12/18 04:20:47;;;;;;;0.00;0.00;;;;;19.50;100741.00;;;;5087050;28;20040;-74
2021/12/18 04:23:17;;;;;;;1.27;0.10;;;;;19.50;100735.00;;;;5087199;28;20477;-75
2021/12/18 04:25:46;;;;;;;0.00;0.00;;;;;19.50;100709.00;;;;5085334;28;20101;-75
2021/12/18 04:28:18;;;;;;;0.00;0.00;;;;;19.50;100732.00;;;;5087390;28;20049;-74
2021/12/18 04:30:47;;;;;;;0.00;0.00;;;;;19.40;100721.00;;;;5086786;28;20089;-75
2021/12/18 04:33:18;;;;;;;0.75;0.75;;;;;19.40;100731.00;;;;5086160;28;20052;-74
2021/12/18 04:35:47;;;;;;;0.00;0.00;;;;;19.40;100720.00;;;;5087111;28;20043;-74
2021/12/18 04:38:17;;;;;;;0.00;0.00;;;;;19.50;100720.00;;;;5086824;28;20040;-74
2021/12/18 04:40:46;;;;;;;0.00;0.00;;;;;19.50;100719.00;;;;5087162;28;20400;-74
2021/12/18 04:43:15;;;;;;;0.00;0.00;;;;;19.70;100696.00;;;;5086020;28;20440;-75
2021/12/18 04:45:45;;;;;;;0.00;0.00;;;;;19.80;100701.00;;;;5086457;28;20074;-75
2021/12/18 04:48:14;;;;;;;0.73;0.45;;;;;19.90;100719.00;;;;5086375;28;20591;-75
2021/12/18 04:50:44;;;;;;;0.43;0.15;;;;;19.90;100713.00;;;;5085511;28;20081;-75
2021/12/18 04:53:13;;;;;;;0.03;0.03;;;;;20.00;100716.00;;;;5086488;28;20079;-74
2021/12/18 04:55:42;;;;;;;0.00;0.00;;;;;20.00;100709.00;;;;5086676;28;20086;-75
2021/12/18 04:58:12;;;;;;;0.00;0.00;;;;;20.00;100721.00;;;;5085870;28;20044;-75
2021/12/18 05:00:46;;;;;;;3.20;0.28;;;;;20.00;100689.00;;;;5084609;28;20097;-74
2021/12/18 05:03:17;;;;;;;0.35;0.05;;;;;20.00;100704.00;;;;5086701;28;20143;-75
2021/12/18 05:05:48;;;;;;;0.00;0.00;;;;;20.00;100702.00;;;;5086402;28;20093;-74
2021/12/18 05:08:18;;;;;;;7.15;0.50;;;;;20.10;100715.00;;;;5085413;28;20048;-74
2021/12/18 05:10:47;;;;;;;0.00;0.00;;;;;20.10;100710.00;;;;5085885;28;20157;-74
2021/12/18 05:13:16;;;;;;;0.00;0.00;;;;;20.10;100691.00;;;;5086187;28;20044;-75
2021/12/18 05:15:46;;;;;;;4.82;2.20;;;;;20.10;100686.00;;;;5086314;28;20173;-74
2021/12/18 05:18:16;;;;;;;0.73;0.20;;;;;20.10;100685.00;;;;5086263;28;20047;-75
2021/12/18 05:20:45;;;;;;;0.00;0.00;;;;;20.10;100681.00;;;;5084840;28;20048;-74
2021/12/18 05:23:14;;;;;;;0.08;0.00;;;;;20.10;100680.00;;;;5085584;28;20148;-74
2021/12/18 05:25:44;;;;;;;0.10;0.00;;;;;20.10;100696.00;;;;5086589;28;20048;-74
2021/12/18 05:28:13;;;;;;;0.10;0.10;;;;;20.10;100699.00;;;;5086845;28;20048;-76
2021/12/18 05:30:43;;;;;;;0.00;0.00;;;;;20.10;100687.00;;;;5086394;28;20074;-74
2021/12/18 05:33:13;;;;;;;1.02;0.45;;;;;20.00;100677.00;;;;5086758;28;20422;-75
2021/12/18 05:35:43;;;;;;;0.00;0.00;;;;;19.90;100689.00;;;;5085634;28;20044;-74
2021/12/18 05:38:13;;;;;;;0.00;0.00;;;;;19.90;100696.00;;;;5086294;28;20135;-74
2021/12/18 05:40:43;;;;;;;0.00;0.00;;;;;19.90;100664.00;;;;5084885;28;20048;-76
2021/12/18 05:43:13;;;;;;;0.00;0.00;;;;;19.90;100682.00;;;;5085933;28;20426;-74
2021/12/18 05:45:42;;;;;;;0.00;0.00;;;;;19.90;100680.00;;;;5085278;28;20134;-75
2021/12/18 05:48:12;;;;;;;0.35;0.20;;;;;19.90;100674.00;;;;5085390;28;20044;-76
2021/12/18 05:50:45;;;;;;;0.00;0.00;;;;;19.90;100677.00;;;;5085492;28;20484;-75
2021/12/18 05:53:15;;;;;;;0.00;0.00;;;;;19.90;100660.00;;;;5086111;28;20474;-75
2021/12/18 05:55:44;;;;;;;0.00;0.00;;;;;20.00;100671.00;;;;5086364;28;20085;-76
2021/12/18 05:58:14;;;;;;;0.57;0.22;;;;;20.00;100659.00;;;;5086106;28;20488;-74
2021/12/18 06:00:44;;;;;;;1.45;0.90;;;;;19.90;100684.00;;;;5083786;28;20090;-74
2021/12/18 06:03:14;;;;;;;1.45;0.45;;;;;19.90;100668.00;;;;5085554;28;20147;-75
2021/12/18 06:05:43;;;;;;;0.00;0.00;;;;;19.80;100655.00;;;;5085965;28;20101;-76
2021/12/18 06:08:14;;;;;;;0.03;0.03;;;;;19.60;100642.00;;;;5086349;28;20105;-73
2021/12/18 06:10:43;;;;;;;0.00;0.00;;;;;19.70;100658.00;;;;5085680;28;20052;-75
2021/12/18 06:13:14;;;;;;;0.00;0.00;;;;;19.70;100670.00;;;;5087234;28;20048;-76
2021/12/18 06:15:43;;;;;;;0.00;0.00;;;;;19.60;100667.00;;;;5089105;28;20036;-75
2021/12/18 06:18:13;;;;;;;0.00;0.00;;;;;19.50;100654.00;;;;5089561;28;20039;-74
2021/12/18 06:20:42;;;;;;;0.30;0.10;;;;;19.40;100651.00;;;;5089979;28;20053;-75
2021/12/18 06:23:11;;;;;;;0.00;0.00;;;;;19.50;100653.00;;;;5089599;28;20040;-74
2021/12/18 06:25:41;;;;;;;0.00;0.00;;;;;19.50;100674.00;;;;5088765;28;20077;-75
2021/12/18 06:28:10;;;;;;;0.00;0.00;;;;;19.40;100666.00;;;;5087364;28;21217;-75
2021/12/18 06:30:40;;;;;;;0.00;0.00;;;;;19.50;100674.00;;;;5089180;28;20849;-75
2021/12/18 06:33:09;;;;;;;0.00;0.00;;;;;19.40;100652.00;;;;5088554;28;20113;-75
2021/12/18 06:35:38;;;;;;;0.00;0.00;;;;;19.40;100660.00;;;;5089153;28;20051;-76
2021/12/18 06:38:08;;;;;;;0.20;0.20;;;;;19.40;100643.00;;;;5088557;28;20105;-74
2021/12/18 06:40:38;;;;;;;0.00;0.00;;;;;19.40;100659.00;;;;5088846;28;20047;-76
2021/12/18 06:43:08;;;;;;;0.17;0.17;;;;;19.40;100667.00;;;;5088874;28;20040;-76
2021/12/18 06:45:37;;;;;;;0.00;0.00;;;;;19.30;100644.00;;;;5089394;28;20725;-75
2021/12/18 06:48:07;;;;;;;0.10;0.10;;;;;19.30;100666.00;;;;5089685;28;20089;-75
2021/12/18 06:50:37;;;;;;;0.00;0.00;;;;;19.30;100662.00;;;;5089052;28;20040;-75
2021/12/18 06:53:07;;;;;;;0.80;0.43;;;;;19.40;100661.00;;;;5088167;28;20750;-77
2021/12/18 06:55:36;;;;;;;0.20;0.20;;;;;19.40;100651.00;;;;5088551;28;20097;-76
2021/12/18 06:58:05;;;;;;;1.65;0.10;;;;;19.40;100657.00;;;;5088355;28;20055;-78
2021/12/18 07:00:35;;;;;;;0.00;0.00;;;;;19.30;100667.00;;;;5088460;28;20063;-77
2021/12/18 07:03:05;;;;;;;0.00;0.00;;;;;19.30;100662.00;;;;5088395;28;20079;-77
2021/12/18 07:05:35;;;;;;;2.63;0.17;;;;;19.40;100673.00;;;;5088424;28;20541;-77
2021/12/18 07:08:04;;;;;;;0.00;0.00;;;;;19.40;100683.00;;;;5088654;28;20055;-75
2021/12/18 07:10:35;;;;;;;0.20;0.10;;;;;19.40;100683.00;;;;5087421;28;20090;-76
2021/12/18 07:13:04;;;;;;;0.00;0.00;;;;;19.40;100695.00;;;;5088629;28;20048;-77
2021/12/18 07:15:34;;;;;;;0.00;0.00;;;;;19.40;100683.00;;;;5088211;28;20097;-75
2021/12/18 07:18:03;;;;;;;0.00;0.00;;;;;19.50;100696.00;;;;5087990;28;20058;-74
2021/12/18 07:20:33;;;;;;;0.25;0.25;;;;;19.50;100688.00;;;;5088710;28;20048;-74
2021/12/18 07:23:02;;;;;;;0.00;0.00;;;;;19.50;100677.00;;;;5088421;28;20040;-77
2021/12/18 07:25:32;;;;;;;0.00;0.00;;;;;19.50;100688.00;;;;5088254;28;20044;-75
2021/12/18 07:28:01;;;;;;;0.00;0.00;;;;;19.40;100679.00;;;;5087905;28;20040;-76
2021/12/18 07:30:31;;;;;;;0.00;0.00;;;;;19.30;100684.00;;;;5087753;28;20047;-74
2021/12/18 07:33:00;;;;;;;0.20;0.15;;;;;19.30;100686.00;;;;5088281;28;20075;-76
2021/12/18 07:35:30;;;;;;;0.00;0.00;;;;;19.30;100680.00;;;;5098126;28;21227;-75
2021/12/18 07:37:59;;;;;;;0.00;0.00;;;;;19.30;100695.00;;;;5099364;28;20052;-74
2021/12/18 07:40:28;;;;;;;0.00;0.00;;;;;19.30;100688.00;;;;5091297;28;20048;-75
2021/12/18 07:42:57;;;;;;;0.00;0.00;;;;;19.40;100701.00;;;;5087571;28;20048;-75
2021/12/18 07:45:27;;;;;;;0.00;0.00;;;;;19.40;100679.00;;;;5087340;28;20048;-76
2021/12/18 07:47:56;;;;;;;2.72;0.52;;;;;19.50;100682.00;;;;5088103;28;20040;-76
2021/12/18 07:50:26;;;;;;;0.00;0.00;;;;;19.50;100682.00;;;;5086504;28;20498;-75
2021/12/18 07:52:55;;;;;;;0.00;0.00;;;;;19.50;100695.00;;;;5085960;28;20060;-75
2021/12/18 07:55:25;;;;;;;0.20;0.13;;;;;19.50;100710.00;;;;5087372;28;20563;-75
2021/12/18 07:57:54;;;;;;;0.00;0.00;;;;;19.60;100704.00;;;;5087932;28;20055;-76
2021/12/18 08:00:24;;;;;;;0.20;0.20;;;;;19.60;100702.00;;;;5087508;28;20048;-75
2021/12/18 08:02:53;;;;;;;0.00;0.00;;;;;19.60;100699.00;;;;5087918;28;20503;-74
2021/12/18 08:05:27;;;;;;;0.00;0.00;;;;;19.70;100717.00;;;;5087558;28;20051;-75
2021/12/18 08:07:57;;;;;;;0.20;0.10;;;;;19.70;100708.00;;;;5087068;28;20040;-78
2021/12/18 08:10:27;;;;;;;0.00;0.00;;;;;19.70;100734.00;;;;5086517;28;20048;-73
2021/12/18 08:12:56;;;;;;;0.00;0.00;;;;;19.80;100724.00;;;;5087811;28;20048;-75
2021/12/18 08:15:25;;;;;;;0.00;0.00;;;;;19.80;100733.00;;;;5086682;28;20052;-76
2021/12/18 08:17:57;;;;;;;2.45;0.10;;;;;19.90;100731.00;;;;5085670;28;20113;-74
2021/12/18 08:20:27;;;;;;;0.00;0.00;;;;;20.00;100730.00;;;;5087330;28;20539;-75
2021/12/18 08:22:56;;;;;;;4.22;0.20;;;;;20.00;100751.00;;;;5086629;28;20036;-75
2021/12/18 08:25:27;;;;;;;0.00;0.00;;;;;20.00;100744.00;;;;5087491;28;20135;-76
2021/12/18 08:27:59;;;;;;;0.00;0.00;;;;;20.00;100774.00;;;;5087010;28;20119;-74
2021/12/18 08:30:31;;;;;;;0.00;0.00;;;;;20.00;100766.00;;;;5087569;28;20127;-74
2021/12/18 08:33:02;;;;;;;0.00;0.00;;;;;20.00;100770.00;;;;5085377;28;20040;-75
2021/12/18 08:35:33;;;;;;;0.00;0.00;;;;;20.00;100763.00;;;;5086357;28;20032;-76
2021/12/18 08:38:03;;;;;;;;;;;;;20.10;100769.00;;;;5087614;28;20527;-76
2021/12/18 08:40:34;;;;;;;0.10;0.10;;;;;20.20;100765.00;;;;5086666;28;19931;-75
2021/12/18 08:43:04;;;;;;;;;;;;;20.20;100760.00;;;;5087176;28;20127;-74
2021/12/18 08:45:33;;;;;;;0.00;0.00;;;;;20.20;100759.00;;;;5086247;28;19923;-77
2021/12/18 08:48:03;;;;;;;0.00;0.00;;;;;20.20;100775.00;;;;5086467;28;20515;-76
2021/12/18 08:50:33;;;;;;;5.97;0.20;;;;;20.30;100777.00;;;;5085357;28;20070;-74
2021/12/18 08:53:02;;;;;;;4.45;0.55;;;;;20.30;100787.00;;;;5086387;28;20055;-75
2021/12/18 08:55:32;;;;;;;0.73;0.22;;;;;20.30;100784.00;;;;5086650;28;20051;-75
2021/12/18 08:58:01;;;;;;;1.75;0.35;;;;;20.40;100775.00;;;;5085878;28;20522;-74
2021/12/18 09:00:32;;;;;;;0.00;0.00;;;;;20.40;100800.00;;;;5086066;28;20040;-74
2021/12/18 09:03:02;;;;;;;0.10;0.00;;;;;20.50;100775.00;;;;5086659;28;20056;-75
2021/12/18 09:05:31;;;;;;;0.32;0.32;;;;;20.60;100794.00;;;;5086457;28;20048;-75
2021/12/18 09:08:04;;;;;;;0.00;0.00;;;;;20.60;100778.00;;;;5086469;28;20056;-75
2021/12/18 09:10:34;;;;;;;0.00;0.00;;;;;20.70;100773.00;;;;5085889;28;20510;-74
2021/12/18 09:13:04;;;;;;;0.00;0.00;;;;;20.70;100769.00;;;;5086608;28;20069;-75
2021/12/18 09:15:33;;;;;;;0.00;0.00;;;;;20.70;100769.00;;;;5085702;28;20069;-74
2021/12/18 09:18:02;;;;;;;0.00;0.00;;;;;20.80;100789.00;;;;5086197;28;20109;-76
2021/12/18 09:20:32;;;;;;;0.20;0.05;;;;;20.80;100780.00;;;;5086089;28;20456;-76
2021/12/18 09:23:02;;;;;;;0.00;0.00;;;;;20.90;100802.00;;;;5086076;28;20461;-77
2021/12/18 09:25:31;;;;;;;0.00;0.00;;;;;20.90;100797.00;;;;5086032;28;20533;-73
2021/12/18 09:28:00;;;;;;;0.00;0.00;;;;;21.00;100788.00;;;;5086355;28;20044;-74
2021/12/18 09:30:30;;;;;;;0.00;0.00;;;;;21.10;100806.00;;;;5085644;28;20048;-74
2021/12/18 09:32:59;;;;;;;0.00;0.00;;;;;21.10;100797.00;;;;5086315;28;20082;-74
2021/12/18 09:35:29;;;;;;;0.00;0.00;;;;;21.20;100797.00;;;;5085477;28;20044;-75
2021/12/18 09:37:58;;;;;;;5.05;1.55;;;;;21.20;100793.00;;;;5085947;28;20044;-75
2021/12/18 09:40:29;;;;;;;0.47;0.00;;;;;21.30;100798.00;;;;5086154;28;20047;-72
2021/12/18 09:42:58;;;;;;;0.52;0.52;;;;;21.40;100807.00;;;;5086577;28;20507;-76
2021/12/18 09:45:28;;;;;;;0.00;0.00;;;;;21.50;100808.00;;;;5085458;28;20048;-72
2021/12/18 09:47:58;;;;;;;0.00;0.00;;;;;21.60;100796.00;;;;5089273;28;20044;-74
2021/12/18 09:50:31;;;;;;;0.00;0.00;;;;;21.70;100793.00;;;;5090464;28;20044;-74
2021/12/18 09:53:01;;;;;;;3.13;0.45;;;;;21.70;100804.00;;;;5089374;28;20144;-74
2021/12/18 09:55:30;;;;;;;0.00;0.00;;;;;21.70;100787.00;;;;5089668;28;20044;-73
2021/12/18 09:58:00;;;;;;;0.00;0.00;;;;;21.80;100801.00;;;;5089324;28;20044;-73
2021/12/18 10:00:30;;;;;;;0.00;0.00;;;;;21.90;100796.00;;;;5085439;28;20507;-74
2021/12/18 10:02:59;;;;;;;0.38;0.00;;;;;22.00;100804.00;;;;5089204;28;20044;-74
2021/12/18 10:05:32;;;;;;;0.43;0.43;;;;;22.10;100798.00;;;;5089729;28;20056;-73
2021/12/18 10:08:12;;;;;;;0.00;0.00;;;;;22.20;100807.00;;;;5089571;28;20036;-74
2021/12/18 10:11:07;;;;;;;0.00;0.00;;;;;22.40;100817.00;;;;5089815;28;20036;-74
2021/12/18 10:13:58;;;;;;;0.00;0.00;;;;;22.50;100793.00;;;;5088931;28;20040;-73
2021/12/18 10:16:30;;;;;;;0.93;0.47;;;;;22.70;100801.00;;;;5090007;28;20048;-73
2021/12/18 10:19:00;;;;;;;2.15;0.30;;;;;23.00;100796.00;;;;5088106;28;20052;-74
2021/12/18 10:21:30;;;;;;;0.00;0.00;;;;;23.00;100796.00;;;;5089098;28;20044;-73
2021/12/18 10:24:14;;;;;;;1.88;0.28;;;;;22.90;100792.00;;;;5089480;28;20171;-76
2021/12/18 10:26:45;;;;;;;0.00;0.00;;;;;23.00;100809.00;;;;5090458;28;20111;-78
2021/12/18 10:29:28;;;;;;;0.00;0.00;;;;;23.00;100817.00;;;;5088281;28;20519;-72
2021/12/18 10:32:05;;;;;;;3.35;0.47;;;;;23.00;100815.00;;;;5089228;28;20103;-72
2021/12/18 10:34:36;;;;;;;0.17;0.15;;;;;23.00;100803.00;;;;5086924;28;20105;-76
2021/12/18 10:37:28;;;;;;;0.52;0.30;;;;;23.10;100817.00;;;;5088724;28;20131;-76
2021/12/18 10:40:10;;;;;;;0.75;0.30;;;;;23.00;100826.00;;;;5089149;28;20123;-76
2021/12/18 10:42:43;;;;;;;0.00;0.00;;;;;23.00;100825.00;;;;5088708;28;20047;-74
2021/12/18 10:45:19;;;;;;;0.45;0.32;;;;;23.20;100827.00;;;;5088697;28;20044;-75
2021/12/18 10:48:05;;;;;;;0.00;0.00;;;;;23.10;100837.00;;;;5088808;28;20532;-74
2021/12/18 10:50:41;;;;;;;1.02;0.10;;;;;23.20;100821.00;;;;5088497;28;20044;-76
2021/12/18 10:53:20;;;;;;;0.95;0.30;;;;;23.40;100821.00;;;;5088215;28;20507;-75
2021/12/18 10:55:54;;;;;;;0.00;0.00;;;;;23.40;100824.00;;;;5088989;28;20115;-76
2021/12/18 10:58:29;;;;;;;0.00;0.00;;;;;23.40;100814.00;;;;5087746;28;20574;-74
2021/12/18 11:01:01;;;;;;;0.10;0.00;;;;;23.50;100813.00;;;;5087285;28;20520;-76
2021/12/18 11:03:38;;;;;;;0.03;0.03;;;;;23.50;100824.00;;;;5088979;28;20052;-76
2021/12/18 11:06:11;;;;;;;0.10;0.00;;;;;23.60;100821.00;;;;5088332;28;20036;-75
2021/12/18 11:08:56;;;;;;;1.45;0.52;;;;;23.70;100834.00;;;;5088222;28;20055;-74
2021/12/18 11:14:14;;;;;;;0.22;0.10;;;;;23.70;100816.00;;;;5088301;28;20117;-76
2021/12/18 11:16:49;;;;;;;1.35;0.20;;;;;23.90;100832.00;;;;5088317;28;20044;-75
2021/12/18 11:19:23;;;;;;;6.20;5.65;;;;;24.10;100834.00;;;;5088395;28;20478;-77
2021/12/18 11:21:56;;;;;;;0.10;0.10;;;;;24.20;100803.00;;;;5088068;28;20066;-73
2021/12/18 11:25:14;;;;;;;0.00;0.00;;;;;25.40;100816.00;;;;5088013;28;20076;-74
2021/12/18 11:27:48;;;;;;;0.88;0.15;;;;;25.40;100812.00;;;;5087141;28;20083;-74
2021/12/18 11:30:18;;;;;;;0.22;0.10;;;;;25.30;100831.00;;;;5088950;28;20159;-76
2021/12/18 11:32:54;;;;;;;0.00;0.00;;;;;25.50;100824.00;;;;5087926;28;20048;-75
2021/12/18 11:35:24;;;;;;;0.00;0.00;;;;;25.70;100824.00;;;;5097798;28;20365;-75
2021/12/18 11:38:08;;;;;;;0.00;0.00;;;;;25.90;100821.00;;;;5108203;28;20056;-74
2021/12/18 11:40:40;;;;;;;0.00;0.00;;;;;25.80;100833.00;;;;5107544;28;20066;-75
2021/12/18 11:43:32;;;;;;;0.55;0.32;;;;;25.90;100831.00;;;;5107788;28;20111;-75
2021/12/18 11:46:23;;;;;;;0.00;0.00;;;;;26.00;100830.00;;;;5096852;28;20144;-76
2021/12/18 11:48:57;;;;;;;0.00;0.00;;;;;26.20;100819.00;;;;5106287;28;20460;-77
2021/12/18 11:51:31;;;;;;;0.10;0.10;;;;;26.70;100810.00;;;;5108533;28;20050;-76
2021/12/18 11:54:06;;;;;;;0.00;0.00;;;;;27.00;100829.00;;;;5108066;28;20043;-75
2021/12/18 11:56:50;;;;;;;0.00;0.00;;;;;27.20;100828.00;;;;5108025;28;20047;-74
2021/12/18 11:59:50;;;;;;;3.40;0.28;;;;;27.30;100819.00;;;;5107596;28;20042;-73
2021/12/18 12:02:48;;;;;;;0.00;0.00;;;;;27.10;100843.00;;;;5092399;28;20613;-75
2021/12/18 12:05:30;;;;;;;0.00;0.00;;;;;27.00;100837.00;;;;5107849;28;20502;-73
2021/12/18 12:08:21;;;;;;;0.00;0.00;;;;;28.00;100802.00;;;;5106663;28;20044;-74
2021/12/18 12:11:07;;;;;;;0.00;0.00;;;;;27.70;100813.00;;;;5105968;28;20578;-75
2021/12/18 12:13:59;;;;;;;3.85;0.20;;;;;27.70;100808.00;;;;5107405;28;20048;-74
2021/12/18 12:16:44;;;;;;;0.00;0.00;;;;;28.20;100794.00;;;;5107075;28;20047;-75
2021/12/18 12:19:50;;;;;;;0.00;0.00;;;;;28.30;100814.00;;;;5107538;28;20510;-77
2021/12/18 12:22:41;;;;;;;0.00;0.00;;;;;29.10;100798.00;;;;5066611;28;20499;-78
2021/12/18 12:25:18;;;;;;;0.00;0.00;;;;;29.50;100805.00;;;;5106335;28;20088;-78
2021/12/18 12:28:01;;;;;;;0.10;0.10;;;;;29.90;100777.00;;;;5107012;28;20448;-75
2021/12/18 12:30:43;;;;;;;0.00;0.00;;;;;30.00;100801.00;;;;5106506;28;20039;-77
2021/12/18 12:33:28;;;;;;;0.70;0.10;;;;;29.40;100813.00;;;;5106683;28;20142;-77
2021/12/18 12:36:03;;;;;;;0.00;0.00;;;;;29.00;100829.00;;;;5106404;28;20058;-76
2021/12/18 12:38:40;;;;;;;0.00;0.00;;;;;28.60;100844.00;;;;5107135;28;20059;-77
2021/12/18 12:41:53;;;;;;;0.00;0.00;;;;;28.40;100819.00;;;;5106848;28;20044;-77
2021/12/18 12:44:25;;;;;;;0.00;0.00;;;;;28.20;100797.00;;;;5106895;28;20043;-74
2021/12/18 12:47:14;;;;;;;0.15;0.08;;;;;27.80;100806.00;;;;5107200;28;20043;-72
2021/12/18 12:49:47;;;;;;;1.23;0.55;;;;;28.00;100795.00;;;;5106740;28;20067;-73
2021/12/18 12:52:19;;;;;;;0.00;0.00;;;;;28.70;100804.00;;;;5107078;28;20074;-76
2021/12/18 12:55:07;;;;;;;0.00;0.00;;;;;28.50;100819.00;;;;5106818;28;20044;-75
2021/12/18 12:57:40;;;;;;;0.00;0.00;;;;;28.40;100810.00;;;;5105009;28;20147;-76
2021/12/18 13:00:10;;;;;;;0.00;0.00;;;;;28.40;100815.00;;;;5106742;28;20093;-75
2021/12/18 13:02:49;;;;;;;0.70;0.43;;;;;28.90;100808.00;;;;5107069;28;20063;-76
2021/12/18 13:05:21;;;;;;;0.00;0.00;;;;;28.90;100827.00;;;;5106495;28;20040;-74
2021/12/18 13:07:58;;;;;;;0.00;0.00;;;;;28.30;100838.00;;;;5104947;28;20405;-78
2021/12/18 13:10:38;;;;;;;0.00;0.00;;;;;28.30;100825.00;;;;5107516;28;20048;-76
2021/12/18 13:13:15;;;;;;;0.00;0.00;;;;;29.00;100808.00;;;;5107190;28;20047;-76
2021/12/18 13:16:14;;;;;;;0.00;0.00;;;;;28.90;100807.00;;;;5106393;28;20100;-77
2021/12/18 13:18:48;;;;;;;0.32;0.10;;;;;29.00;100786.00;;;;5106172;28;20047;-75
2021/12/18 13:21:35;;;;;;;0.00;0.00;;;;;29.80;100803.00;;;;5107520;28;20036;-76
2021/12/18 13:24:07;;;;;;;0.08;0.00;;;;;29.80;100806.00;;;;5110825;28;20127;-76